createdAt,value
2017-12-15T00:02:26.907Z,4.40
2017-12-15T00:04:54.986Z,4.30
2017-12-15T00:07:23.047Z,4.20
2017-12-15T00:09:51.103Z,4.10
2017-12-15T00:12:19.182Z,4.20
2017-12-15T00:14:47.251Z,4.10
2017-12-15T00:17:15.328Z,4.00
2017-12-15T00:19:43.405Z,3.90
2017-12-15T00:22:11.476Z,4.30
2017-12-15T00:24:40.310Z,3.70
2017-12-15T00:27:08.379Z,3.80
2017-12-15T00:29:37.226Z,3.30
2017-12-15T00:32:05.298Z,3.60
2017-12-15T00:34:33.352Z,3.70
2017-12-15T00:37:01.419Z,3.60
2017-12-15T00:39:29.478Z,3.60
2017-12-15T00:41:58.103Z,3.90
2017-12-15T00:44:26.258Z,3.30
2017-12-15T00:46:54.466Z,3.40
2017-12-15T00:49:23.302Z,3.10
2017-12-15T00:51:51.389Z,3.30
2017-12-15T00:54:19.442Z,3.10
2017-12-15T00:56:48.448Z,3.20
2017-12-15T00:59:16.510Z,3.10
2017-12-15T01:01:44.573Z,3.30
2017-12-15T01:04:12.646Z,3.70
2017-12-15T01:06:40.743Z,3.30
2017-12-15T01:09:08.798Z,3.50
2017-12-15T01:11:36.845Z,3.40
2017-12-15T01:14:04.915Z,3.60
2017-12-15T01:16:32.974Z,3.30
2017-12-15T01:19:01.030Z,3.50
2017-12-15T01:21:29.873Z,3.30
2017-12-15T01:23:57.939Z,3.30
2017-12-15T01:26:26.186Z,3.30
2017-12-15T01:28:54.246Z,3.30
2017-12-15T01:31:22.297Z,3.00
2017-12-15T01:33:51.128Z,2.90
2017-12-15T01:36:19.198Z,2.70
2017-12-15T01:38:47.290Z,2.60
2017-12-15T01:41:15.343Z,2.50
2017-12-15T01:43:43.402Z,2.70
2017-12-15T01:46:11.483Z,3.00
2017-12-15T01:48:39.538Z,2.60
2017-12-15T01:51:07.602Z,2.80
2017-12-15T01:53:35.654Z,2.70
2017-12-15T01:56:04.514Z,2.50
2017-12-15T01:58:32.583Z,2.40
2017-12-15T02:01:00.648Z,2.20
2017-12-15T02:03:28.717Z,2.60
2017-12-15T02:05:56.791Z,2.40
2017-12-15T02:08:24.859Z,2.40
2017-12-15T02:10:53.010Z,2.70
2017-12-15T02:13:21.410Z,2.50
2017-12-15T02:15:49.494Z,2.30
2017-12-15T02:18:17.554Z,2.80
2017-12-15T02:20:46.334Z,2.70
2017-12-15T02:23:14.415Z,2.60
2017-12-15T02:25:42.475Z,2.60
2017-12-15T02:28:10.546Z,2.40
2017-12-15T02:30:38.601Z,2.10
2017-12-15T02:33:06.691Z,2.00
2017-12-15T02:35:34.751Z,1.80
2017-12-15T02:38:02.810Z,2.20
2017-12-15T02:40:30.866Z,2.00
2017-12-15T02:42:58.931Z,1.90
2017-12-15T02:45:26.992Z,2.40
2017-12-15T02:47:55.066Z,2.20
2017-12-15T02:50:23.134Z,2.40
2017-12-15T02:52:51.263Z,2.40
2017-12-15T02:55:19.323Z,2.50
2017-12-15T02:57:47.505Z,2.30
2017-12-15T03:00:15.678Z,2.20
2017-12-15T03:02:43.749Z,2.70
2017-12-15T03:05:11.812Z,2.80
2017-12-15T03:07:39.995Z,2.80
2017-12-15T03:10:08.154Z,3.00
2017-12-15T03:12:36.210Z,2.30
2017-12-15T03:15:04.270Z,2.30
2017-12-15T03:17:32.417Z,2.30
2017-12-15T03:20:00.482Z,2.40
2017-12-15T03:22:28.731Z,2.60
2017-12-15T03:24:57.212Z,2.30
2017-12-15T03:27:25.258Z,2.50
2017-12-15T03:29:53.317Z,2.00
2017-12-15T03:32:21.452Z,2.20
2017-12-15T03:34:49.514Z,2.50
2017-12-15T03:37:17.578Z,2.60
2017-12-15T03:39:45.643Z,2.50
2017-12-15T03:42:14.476Z,2.70
2017-12-15T03:44:42.546Z,2.50
2017-12-15T03:47:10.606Z,2.70
2017-12-15T03:49:38.667Z,2.90
2017-12-15T03:52:07.004Z,2.80
2017-12-15T03:54:35.055Z,2.90
2017-12-15T03:57:03.538Z,2.80
2017-12-15T03:59:31.589Z,2.80
2017-12-15T04:01:59.657Z,2.70
2017-12-15T04:04:27.711Z,2.80
2017-12-15T04:06:55.778Z,2.80
2017-12-15T04:09:23.840Z,2.80
2017-12-15T04:11:51.966Z,2.70
2017-12-15T04:14:20.794Z,2.60
2017-12-15T04:16:49.622Z,2.80
2017-12-15T04:19:17.710Z,2.80
2017-12-15T04:21:45.775Z,2.80
2017-12-15T04:24:13.854Z,2.50
2017-12-15T04:26:41.914Z,2.50
2017-12-15T04:29:09.986Z,2.70
2017-12-15T04:31:38.057Z,2.60
2017-12-15T04:34:06.108Z,2.60
2017-12-15T04:36:34.180Z,2.70
2017-12-15T04:39:02.236Z,2.40
2017-12-15T04:41:30.343Z,2.30
2017-12-15T04:43:58.421Z,2.30
2017-12-15T04:46:26.500Z,2.30
2017-12-15T04:48:54.555Z,2.70
2017-12-15T04:51:22.606Z,2.90
2017-12-15T04:53:50.674Z,2.80
2017-12-15T04:56:18.732Z,2.70
2017-12-15T04:58:47.765Z,2.90
2017-12-15T05:01:15.814Z,3.00
2017-12-15T05:03:43.890Z,2.90
2017-12-15T05:06:11.950Z,3.20
2017-12-15T05:08:40.013Z,3.50
2017-12-15T05:11:08.086Z,4.30
2017-12-15T05:13:36.150Z,4.10
2017-12-15T05:16:04.198Z,3.90
2017-12-15T05:18:32.262Z,4.00
2017-12-15T05:21:00.323Z,4.40
2017-12-15T05:23:29.177Z,4.70
2017-12-15T05:25:57.231Z,4.90
2017-12-15T05:28:25.307Z,5.10
2017-12-15T05:30:53.372Z,4.60
2017-12-15T05:33:21.461Z,5.00
2017-12-15T05:35:49.529Z,4.90
2017-12-15T05:38:17.590Z,5.20
2017-12-15T05:40:45.667Z,5.30
2017-12-15T05:43:13.738Z,5.20
2017-12-15T05:45:41.811Z,5.20
2017-12-15T05:48:09.938Z,5.30
2017-12-15T05:50:38.065Z,5.30
2017-12-15T05:53:06.138Z,5.50
2017-12-15T05:55:34.202Z,5.60
2017-12-15T05:58:02.387Z,5.50
2017-12-15T06:00:30.855Z,5.60
2017-12-15T06:02:58.914Z,5.50
2017-12-15T06:05:26.988Z,5.70
2017-12-15T06:07:55.060Z,5.80
2017-12-15T06:10:23.130Z,5.70
2017-12-15T06:12:51.202Z,5.80
2017-12-15T06:15:19.310Z,4.60
2017-12-15T06:17:50.106Z,3.60
2017-12-15T06:20:21.662Z,3.40
2017-12-15T06:22:49.995Z,3.50
2017-12-15T06:25:18.058Z,3.50
2017-12-15T06:27:46.118Z,4.00
2017-12-15T06:30:14.944Z,3.60
2017-12-15T06:32:43.047Z,3.50
2017-12-15T06:35:11.094Z,4.00
2017-12-15T06:37:39.150Z,4.70
2017-12-15T06:40:07.260Z,3.60
2017-12-15T06:42:35.331Z,3.80
2017-12-15T06:45:03.491Z,3.60
2017-12-15T06:47:31.545Z,3.60
2017-12-15T06:49:59.602Z,3.40
2017-12-15T06:52:27.708Z,3.30
2017-12-15T06:54:55.762Z,3.60
2017-12-15T06:57:23.835Z,4.30
2017-12-15T06:59:52.398Z,4.50
2017-12-15T07:02:20.462Z,4.80
2017-12-15T07:04:48.522Z,4.60
2017-12-15T07:07:16.596Z,3.70
2017-12-15T07:09:44.650Z,3.70
2017-12-15T07:12:13.483Z,3.40
2017-12-15T07:14:41.566Z,3.10
2017-12-15T07:17:09.643Z,3.20
2017-12-15T07:19:37.775Z,3.30
2017-12-15T07:22:05.828Z,3.30
2017-12-15T07:24:33.894Z,3.60
2017-12-15T07:27:02.564Z,3.20
2017-12-15T07:29:30.697Z,3.90
2017-12-15T07:31:58.753Z,4.30
2017-12-15T07:34:26.818Z,4.00
2017-12-15T07:36:54.887Z,4.10
2017-12-15T07:39:22.986Z,4.90
2017-12-15T07:41:51.921Z,5.20
2017-12-15T07:44:20.758Z,5.50
2017-12-15T07:46:48.832Z,5.50
2017-12-15T07:49:17.150Z,4.80
2017-12-15T07:51:46.011Z,4.60
2017-12-15T07:54:14.080Z,5.20
2017-12-15T07:56:42.141Z,5.40
2017-12-15T07:59:10.199Z,5.60
2017-12-15T08:01:38.265Z,5.60
2017-12-15T08:04:06.321Z,5.40
2017-12-15T08:06:34.389Z,4.70
2017-12-15T08:09:02.564Z,4.60
2017-12-15T08:11:30.646Z,4.30
2017-12-15T08:13:58.726Z,4.60
2017-12-15T08:16:26.794Z,5.20
2017-12-15T08:18:54.856Z,5.10
2017-12-15T08:21:22.954Z,4.20
2017-12-15T08:23:51.013Z,4.10
2017-12-15T08:26:19.087Z,4.60
2017-12-15T08:28:47.159Z,4.40
2017-12-15T08:31:15.247Z,5.30
2017-12-15T08:33:43.300Z,5.00
2017-12-15T08:36:11.375Z,5.00
2017-12-15T08:38:39.442Z,5.20
2017-12-15T08:41:07.510Z,4.40
2017-12-15T08:43:35.566Z,5.70
2017-12-15T08:46:03.655Z,6.00
2017-12-15T08:48:31.726Z,5.80
2017-12-15T08:50:59.786Z,6.00
2017-12-15T08:53:27.862Z,6.50
2017-12-15T08:55:55.927Z,6.10
2017-12-15T08:58:24.014Z,5.00
2017-12-15T09:00:52.070Z,4.50
2017-12-15T09:03:20.166Z,5.40
2017-12-15T09:05:48.738Z,6.10
2017-12-15T09:08:16.920Z,5.00
2017-12-15T09:10:45.910Z,5.50
2017-12-15T09:13:13.984Z,5.50
2017-12-15T09:15:42.159Z,6.30
2017-12-15T09:18:10.235Z,6.70
2017-12-15T09:20:39.076Z,6.00
2017-12-15T09:23:07.178Z,6.20
2017-12-15T09:25:35.252Z,6.10
2017-12-15T09:28:03.320Z,5.30
2017-12-15T09:30:31.393Z,6.30
2017-12-15T09:32:59.470Z,5.70
2017-12-15T09:35:27.530Z,6.40
2017-12-15T09:37:55.599Z,5.90
2017-12-15T09:40:23.664Z,6.00
2017-12-15T09:42:51.723Z,6.20
2017-12-15T09:45:20.307Z,5.40
2017-12-15T09:47:48.402Z,5.40
2017-12-15T09:50:16.554Z,5.80
2017-12-15T09:52:44.626Z,5.50
2017-12-15T09:55:12.697Z,5.70
2017-12-15T09:57:40.787Z,4.90
2017-12-15T10:00:08.854Z,5.10
2017-12-15T10:02:36.918Z,5.00
2017-12-15T10:05:05.391Z,5.20
2017-12-15T10:07:33.462Z,5.30
2017-12-15T10:10:01.536Z,5.40
2017-12-15T10:12:29.607Z,5.30
2017-12-15T10:14:57.680Z,5.20
2017-12-15T10:17:25.758Z,4.90
2017-12-15T10:19:53.831Z,4.90
2017-12-15T10:22:21.915Z,4.60
2017-12-15T10:24:50.740Z,4.30
2017-12-15T10:27:18.861Z,4.00
2017-12-15T10:29:46.928Z,4.50
2017-12-15T10:32:15.162Z,4.30
2017-12-15T10:34:43.226Z,4.30
2017-12-15T10:37:11.294Z,4.20
2017-12-15T10:39:39.350Z,4.00
2017-12-15T10:42:07.475Z,4.10
2017-12-15T10:44:36.028Z,4.00
2017-12-15T10:47:04.094Z,5.10
2017-12-15T10:49:32.162Z,4.60
2017-12-15T10:52:00.234Z,4.70
2017-12-15T10:54:28.336Z,5.10
2017-12-15T10:56:56.396Z,5.60
2017-12-15T10:59:24.455Z,6.10
2017-12-15T11:01:52.526Z,5.40
2017-12-15T11:04:20.596Z,4.80
2017-12-15T11:06:48.655Z,4.70
2017-12-15T11:09:16.743Z,4.80
2017-12-15T11:11:44.853Z,5.00
2017-12-15T11:14:12.875Z,4.90
2017-12-15T11:16:41.007Z,4.40
2017-12-15T11:19:09.827Z,4.50
2017-12-15T11:21:37.935Z,4.40
2017-12-15T11:24:06.922Z,4.20
2017-12-15T11:26:34.982Z,4.30
2017-12-15T11:29:03.060Z,4.10
2017-12-15T11:31:31.127Z,4.10
2017-12-15T11:33:59.178Z,4.40
2017-12-15T11:36:27.242Z,4.80
2017-12-15T11:38:55.326Z,4.40
2017-12-15T11:41:23.514Z,4.60
2017-12-15T11:43:51.598Z,4.50
2017-12-15T11:46:19.773Z,4.80
2017-12-15T11:48:47.830Z,4.40
2017-12-15T11:51:15.907Z,4.40
2017-12-15T11:53:43.995Z,4.30
2017-12-15T11:56:12.067Z,4.60
2017-12-15T11:58:40.126Z,4.40
2017-12-15T12:01:08.199Z,4.60
2017-12-15T12:03:36.289Z,4.10
2017-12-15T12:06:04.430Z,4.10
2017-12-15T12:08:32.515Z,3.90
2017-12-15T12:11:00.587Z,3.90
2017-12-15T12:13:28.648Z,3.90
2017-12-15T12:15:56.742Z,4.00
2017-12-15T12:18:25.609Z,3.80
2017-12-15T12:20:53.679Z,3.50
2017-12-15T12:23:21.743Z,3.80
2017-12-15T12:25:49.848Z,4.00
2017-12-15T12:28:18.666Z,3.90
2017-12-15T12:30:46.735Z,3.80
2017-12-15T12:33:14.812Z,3.90
2017-12-15T12:35:42.878Z,3.90
2017-12-15T12:38:11.103Z,3.50
2017-12-15T12:40:39.187Z,3.60
2017-12-15T12:43:08.035Z,3.40
2017-12-15T12:45:36.111Z,3.20
2017-12-15T12:48:04.211Z,3.00
2017-12-15T12:50:32.278Z,3.00
2017-12-15T12:53:00.479Z,3.00
2017-12-15T12:55:29.295Z,2.90
2017-12-15T12:57:57.375Z,3.10
2017-12-15T13:00:25.436Z,3.10
2017-12-15T13:02:53.502Z,3.10
2017-12-15T13:05:21.554Z,3.20
2017-12-15T13:07:49.614Z,3.00
2017-12-15T13:10:17.671Z,2.90
2017-12-15T13:12:46.503Z,2.90
2017-12-15T13:15:15.502Z,3.10
2017-12-15T13:17:43.586Z,3.10
2017-12-15T13:20:11.646Z,3.10
2017-12-15T13:22:39.727Z,3.20
2017-12-15T13:25:07.793Z,3.20
2017-12-15T13:27:35.892Z,3.00
2017-12-15T13:30:03.931Z,3.70
2017-12-15T13:32:31.996Z,3.50
2017-12-15T13:35:00.082Z,3.80
2017-12-15T13:37:28.147Z,3.80
2017-12-15T13:39:56.214Z,3.40
2017-12-15T13:42:24.284Z,3.40
2017-12-15T13:44:52.359Z,3.30
2017-12-15T13:47:20.427Z,3.50
2017-12-15T13:49:48.499Z,3.30
2017-12-15T13:52:16.569Z,3.70
2017-12-15T13:54:44.708Z,3.90
2017-12-15T13:57:12.785Z,3.90
2017-12-15T13:59:40.874Z,3.50
2017-12-15T14:02:08.935Z,3.30
2017-12-15T14:04:37.034Z,3.60
2017-12-15T14:07:05.106Z,4.00
2017-12-15T14:09:33.172Z,3.60
2017-12-15T14:12:01.266Z,3.80
2017-12-15T14:14:29.343Z,3.70
2017-12-15T14:16:58.218Z,3.90
2017-12-15T14:19:26.383Z,4.00
2017-12-15T14:21:54.451Z,4.00
2017-12-15T14:24:22.526Z,3.90
2017-12-15T14:26:50.594Z,4.20
2017-12-15T14:29:18.666Z,3.70
2017-12-15T14:31:46.746Z,3.80
2017-12-15T14:34:14.916Z,3.90
2017-12-15T14:36:42.989Z,3.90
2017-12-15T14:39:11.056Z,4.00
2017-12-15T14:41:39.414Z,4.20
2017-12-15T14:44:07.469Z,4.30
2017-12-15T14:46:35.546Z,4.40
2017-12-15T14:49:03.612Z,4.10
2017-12-15T14:51:31.679Z,3.70
2017-12-15T14:53:59.751Z,4.20
2017-12-15T14:56:27.808Z,4.00
2017-12-15T14:58:55.883Z,4.20
2017-12-15T15:01:23.947Z,4.20
2017-12-15T15:03:52.024Z,4.60
2017-12-15T15:06:20.100Z,4.70
2017-12-15T15:08:48.163Z,4.70
2017-12-15T15:11:16.253Z,4.30
2017-12-15T15:13:44.335Z,4.10
2017-12-15T15:16:12.397Z,4.00
2017-12-15T15:18:40.463Z,4.10
2017-12-15T15:21:08.524Z,4.40
2017-12-15T15:23:36.594Z,4.70
2017-12-15T15:26:05.046Z,4.80
2017-12-15T15:28:33.119Z,5.10
2017-12-15T15:31:01.196Z,4.60
2017-12-15T15:33:29.317Z,4.70
2017-12-15T15:35:57.382Z,5.00
2017-12-15T15:38:25.474Z,4.90
2017-12-15T15:40:53.623Z,4.60
2017-12-15T15:43:21.716Z,4.60
2017-12-15T15:45:49.816Z,5.10
2017-12-15T15:48:17.944Z,5.50
2017-12-15T15:50:46.021Z,5.60
2017-12-15T15:53:14.080Z,5.90
2017-12-15T15:55:42.886Z,5.60
2017-12-15T15:58:10.970Z,5.00
2017-12-15T16:00:39.819Z,4.90
2017-12-15T16:03:07.892Z,4.50
2017-12-15T16:05:35.975Z,5.30
2017-12-15T16:08:04.115Z,5.60
2017-12-15T16:10:32.220Z,5.30
2017-12-15T16:13:00.287Z,5.70
2017-12-15T16:15:28.423Z,6.00
2017-12-15T16:17:56.496Z,6.30
2017-12-15T16:20:24.607Z,5.80
2017-12-15T16:22:52.678Z,5.50
2017-12-15T16:25:20.734Z,6.00
2017-12-15T16:27:48.814Z,6.10
2017-12-15T16:30:16.884Z,5.50
2017-12-15T16:32:44.988Z,5.20
2017-12-15T16:35:13.815Z,5.30
2017-12-15T16:37:41.895Z,5.70
2017-12-15T16:40:09.965Z,5.90
2017-12-15T16:42:38.033Z,5.30
2017-12-15T16:45:06.111Z,5.50
2017-12-15T16:47:34.186Z,5.20
2017-12-15T16:50:02.255Z,5.10
2017-12-15T16:52:30.323Z,5.00
2017-12-15T16:54:58.393Z,5.40
2017-12-15T16:57:26.468Z,5.30
2017-12-15T16:59:54.545Z,4.70
2017-12-15T17:02:22.718Z,4.90
2017-12-15T17:04:50.803Z,4.90
2017-12-15T17:07:18.875Z,5.00
2017-12-15T17:09:46.949Z,4.60
2017-12-15T17:12:15.822Z,4.50
2017-12-15T17:14:43.895Z,4.80
2017-12-15T17:17:11.959Z,5.20
2017-12-15T17:19:40.035Z,5.50
2017-12-15T17:22:08.098Z,5.40
2017-12-15T17:24:37.082Z,4.70
2017-12-15T17:27:05.155Z,5.00
2017-12-15T17:29:33.246Z,4.70
2017-12-15T17:32:01.311Z,5.00
2017-12-15T17:34:29.379Z,4.70
2017-12-15T17:36:57.456Z,5.00
2017-12-15T17:39:25.526Z,5.10
2017-12-15T17:41:53.599Z,5.10
2017-12-15T17:44:21.666Z,5.10
2017-12-15T17:46:49.742Z,5.20
2017-12-15T17:49:17.814Z,5.50
2017-12-15T17:51:45.887Z,5.00
2017-12-15T17:54:13.964Z,4.70
2017-12-15T17:56:42.804Z,4.40
2017-12-15T17:59:10.907Z,4.20
2017-12-15T18:01:38.973Z,4.70
2017-12-15T18:04:07.045Z,4.90
2017-12-15T18:06:35.111Z,4.80
2017-12-15T18:09:03.187Z,4.90
2017-12-15T18:11:31.258Z,5.20
2017-12-15T18:13:59.325Z,5.20
2017-12-15T18:16:27.395Z,4.60
2017-12-15T18:18:55.800Z,5.20
2017-12-15T18:21:23.947Z,5.60
2017-12-15T18:23:52.119Z,5.20
2017-12-15T18:26:20.191Z,5.30
2017-12-15T18:28:48.263Z,5.10
2017-12-15T18:31:16.339Z,5.30
2017-12-15T18:33:44.395Z,5.40
2017-12-15T18:36:12.471Z,5.60
2017-12-15T18:38:40.526Z,5.20
2017-12-15T18:41:08.627Z,5.20
2017-12-15T18:43:37.476Z,5.10
2017-12-15T18:46:05.550Z,5.80
2017-12-15T18:48:33.639Z,6.00
2017-12-15T18:51:01.710Z,5.80
2017-12-15T18:53:29.782Z,5.30
2017-12-15T18:55:57.837Z,5.90
2017-12-15T18:58:25.907Z,5.50
2017-12-15T19:00:54.003Z,5.20
2017-12-15T19:03:22.162Z,5.60
2017-12-15T19:05:50.214Z,5.30
2017-12-15T19:08:18.291Z,5.80
2017-12-15T19:10:46.357Z,5.80
2017-12-15T19:13:14.427Z,5.80
2017-12-15T19:15:43.268Z,5.60
2017-12-15T19:18:12.112Z,5.10
2017-12-15T19:20:40.191Z,4.90
2017-12-15T19:23:08.385Z,4.40
2017-12-15T19:25:36.476Z,4.60
2017-12-15T19:28:04.559Z,5.30
2017-12-15T19:30:32.648Z,5.10
2017-12-15T19:33:00.755Z,5.80
2017-12-15T19:35:28.964Z,5.60
2017-12-15T19:37:57.812Z,5.50
2017-12-15T19:40:25.988Z,4.80
2017-12-15T19:42:54.059Z,5.30
2017-12-15T19:45:22.126Z,5.30
2017-12-15T19:47:50.196Z,5.20
2017-12-15T19:50:18.256Z,5.20
2017-12-15T19:52:46.347Z,4.80
2017-12-15T19:55:14.411Z,4.60
2017-12-15T19:57:42.555Z,4.80
2017-12-15T20:00:10.655Z,4.80
2017-12-15T20:02:38.727Z,5.30
2017-12-15T20:05:06.803Z,5.10
2017-12-15T20:07:34.872Z,5.40
2017-12-15T20:10:02.992Z,4.80
2017-12-15T20:12:31.069Z,5.20
2017-12-15T20:14:59.975Z,5.40
2017-12-15T20:17:28.046Z,5.20
2017-12-15T20:19:56.460Z,5.60
2017-12-15T20:22:24.554Z,5.60
2017-12-15T20:24:53.388Z,5.50
2017-12-15T20:27:21.493Z,5.70
2017-12-15T20:29:49.587Z,5.60
2017-12-15T20:32:17.661Z,5.30
2017-12-15T20:34:45.798Z,5.10
2017-12-15T20:37:13.883Z,5.10
2017-12-15T20:39:41.980Z,5.30
2017-12-15T20:42:10.831Z,5.50
2017-12-15T20:44:38.915Z,5.30
2017-12-15T20:47:06.982Z,4.70
2017-12-15T20:49:35.049Z,5.30
2017-12-15T20:52:03.120Z,5.10
2017-12-15T20:54:31.182Z,5.50
2017-12-15T20:56:59.274Z,5.60
2017-12-15T20:59:28.150Z,5.40
2017-12-15T21:01:56.232Z,5.80
2017-12-15T21:04:25.079Z,5.80
2017-12-15T21:06:53.170Z,5.70
2017-12-15T21:09:21.660Z,5.30
2017-12-15T21:11:49.727Z,5.00
2017-12-15T21:14:17.802Z,4.90
2017-12-15T21:16:45.886Z,4.80
2017-12-15T21:19:14.727Z,5.40
2017-12-15T21:21:42.798Z,5.10
2017-12-15T21:24:10.873Z,4.60
2017-12-15T21:26:39.012Z,5.00
2017-12-15T21:29:07.176Z,4.90
2017-12-15T21:31:35.314Z,4.70
2017-12-15T21:34:03.534Z,4.50
2017-12-15T21:36:31.636Z,5.20
2017-12-15T21:38:59.711Z,4.70
2017-12-15T21:41:28.115Z,5.10
2017-12-15T21:43:56.202Z,4.40
2017-12-15T21:46:25.063Z,4.80
2017-12-15T21:48:53.159Z,4.40
2017-12-15T21:51:21.996Z,4.90
2017-12-15T21:53:50.061Z,4.60
2017-12-15T21:56:18.157Z,5.10
2017-12-15T21:58:46.231Z,4.80
2017-12-15T22:01:14.316Z,4.70
2017-12-15T22:03:42.476Z,4.60
2017-12-15T22:06:10.558Z,4.10
2017-12-15T22:08:38.631Z,4.30
2017-12-15T22:11:07.475Z,4.50
2017-12-15T22:13:35.538Z,4.70
2017-12-15T22:16:03.602Z,4.60
2017-12-15T22:18:32.599Z,5.00
2017-12-15T22:21:00.668Z,4.40
2017-12-15T22:23:28.733Z,4.70
2017-12-15T22:25:56.816Z,4.60
2017-12-15T22:28:24.887Z,4.40
2017-12-15T22:30:52.970Z,4.50
2017-12-15T22:33:21.031Z,4.60
2017-12-15T22:35:49.107Z,4.60
2017-12-15T22:38:17.170Z,5.30
2017-12-15T22:40:45.239Z,5.00
2017-12-15T22:43:13.339Z,5.10
2017-12-15T22:45:41.475Z,5.20
2017-12-15T22:48:09.548Z,5.30
2017-12-15T22:50:37.624Z,4.90
2017-12-15T22:53:05.691Z,5.70
2017-12-15T22:55:33.773Z,6.00
2017-12-15T22:58:01.832Z,6.30
2017-12-15T23:00:29.910Z,6.20
2017-12-15T23:02:58.004Z,6.00
2017-12-15T23:05:26.967Z,5.10
2017-12-15T23:07:55.038Z,4.80
2017-12-15T23:10:23.107Z,5.50
2017-12-15T23:12:51.183Z,5.40
2017-12-15T23:15:20.174Z,5.90
2017-12-15T23:17:48.259Z,6.00
2017-12-15T23:20:16.342Z,5.20
2017-12-15T23:22:44.424Z,6.00
2017-12-15T23:25:12.486Z,5.80
2017-12-15T23:27:40.555Z,5.80
2017-12-15T23:30:08.727Z,4.60
2017-12-15T23:32:36.788Z,5.10
2017-12-15T23:35:04.863Z,5.50
2017-12-15T23:37:32.934Z,4.80
2017-12-15T23:40:01.010Z,5.30
2017-12-15T23:42:29.096Z,5.50
2017-12-15T23:44:57.168Z,5.80
2017-12-15T23:47:25.229Z,5.70
2017-12-15T23:49:53.302Z,5.90
2017-12-15T23:52:21.477Z,4.60
2017-12-15T23:55:07.824Z,4.70
2017-12-15T23:57:35.896Z,4.40
